Time;durP1;ratioP1;P1;durP2;ratioP2;P2;SDS_P1;SDS_P2;PMS_P1;PMS_P2;Temp;Humidity;BMP_temperature;BMP_pressure;BME280_temperature;BME280_humidity;BME280_pressure;Samples;Min_cycle;Max_cycle;Signal;HPM_P1;HPM_P2
2023/06/30 00:00:17;;;;;;;;;;;22.00;87.40;;;;;;7389423;19;20007;-75
2023/06/30 00:02:47;;;;;;;6.97;3.50;;;22.00;87.70;;;;;;7388230;19;19918;-76
2023/06/30 00:05:16;;;;;;;5.85;3.65;;;22.10;87.50;;;;;;7386213;19;20035;-76
2023/06/30 00:07:45;;;;;;;6.13;3.75;;;22.00;87.60;;;;;;7388469;19;20000;-75
2023/06/30 00:10:14;;;;;;;5.15;3.40;;;22.00;87.90;;;;;;7403905;19;20015;-77
2023/06/30 00:12:42;;;;;;;5.30;2.97;;;22.00;88.10;;;;;;7384654;19;20006;-76
2023/06/30 00:15:14;;;;;;;5.03;2.90;;;21.80;88.00;;;;;;7388117;19;20023;-76
2023/06/30 00:20:54;;;;;;;5.22;3.40;;;21.80;88.30;;;;;;7396724;19;19991;-75
2023/06/30 00:23:23;;;;;;;7.25;3.53;;;21.90;87.90;;;;;;7385725;19;20003;-76
2023/06/30 00:25:51;;;;;;;5.38;2.80;;;21.70;88.00;;;;;;7384942;19;20002;-76
2023/06/30 00:28:20;;;;;;;6.10;3.00;;;21.80;88.20;;;;;;7403485;19;20023;-76
2023/06/30 00:30:51;;;;;;;4.32;2.85;;;21.80;87.90;;;;;;7386137;19;20017;-76
2023/06/30 00:33:20;;;;;;;;;;;21.90;87.70;;;;;;7393132;19;20002;-76
2023/06/30 00:35:49;;;;;;;4.28;2.85;;;21.90;87.50;;;;;;7385670;19;19911;-75
2023/06/30 00:38:17;;;;;;;6.75;3.08;;;21.90;87.30;;;;;;7384645;19;20011;-76
2023/06/30 00:40:46;;;;;;;5.63;3.63;;;21.80;87.40;;;;;;7385276;19;20256;-75
2023/06/30 00:43:18;;;;;;;6.70;4.43;;;21.90;87.50;;;;;;7403047;19;20010;-77
2023/06/30 00:45:47;;;;;;;11.35;5.22;;;21.90;87.50;;;;;;7383132;19;20007;-77
2023/06/30 00:48:19;;;;;;;19.13;9.18;;;21.90;87.20;;;;;;7385524;19;20003;-76
2023/06/30 00:50:48;;;;;;;28.25;12.80;;;22.00;87.10;;;;;;7386636;19;20013;-77
2023/06/30 00:53:17;;;;;;;22.45;13.45;;;21.90;86.90;;;;;;7385799;19;20026;-77
2023/06/30 00:55:46;;;;;;;36.20;20.52;;;22.00;86.80;;;;;;7382600;19;20029;-76
2023/06/30 00:58:15;;;;;;;30.83;16.83;;;22.10;86.60;;;;;;7408575;19;20006;-76
2023/06/30 01:00:44;;;;;;;29.48;14.30;;;22.00;86.50;;;;;;7384446;19;20035;-78
2023/06/30 01:03:25;;;;;;;25.67;11.90;;;22.10;86.60;;;;;;7382186;19;20011;-76
2023/06/30 01:06:00;;;;;;;25.93;14.33;;;21.90;86.50;;;;;;7382334;19;20023;-75
2023/06/30 01:08:37;;;;;;;29.75;15.88;;;21.80;86.90;;;;;;7381815;19;20460;-77
2023/06/30 01:11:07;;;;;;;22.67;10.10;;;21.80;87.00;;;;;;7381470;19;20007;-77
2023/06/30 01:13:36;;;;;;;12.80;5.97;;;21.70;86.20;;;;;;7381068;19;20007;-76
2023/06/30 01:16:09;;;;;;;10.35;6.03;;;21.70;87.10;;;;;;7402818;19;20091;-76
2023/06/30 01:18:44;;;;;;;9.77;5.47;;;21.60;87.00;;;;;;7381692;19;20007;-76
2023/06/30 01:21:16;;;;;;;9.60;4.90;;;21.70;86.90;;;;;;7382361;19;20009;-77
2023/06/30 01:23:52;;;;;;;6.90;3.58;;;21.60;86.90;;;;;;7387450;19;20009;-76
2023/06/30 01:26:21;;;;;;;4.53;3.20;;;21.70;86.80;;;;;;7381068;19;20027;-76
2023/06/30 01:28:50;;;;;;;6.40;2.92;;;21.70;86.60;;;;;;7383692;19;20530;-75
2023/06/30 01:31:20;;;;;;;5.97;2.85;;;21.70;86.50;;;;;;7404517;19;20031;-75
2023/06/30 01:33:53;;;;;;;5.13;3.00;;;21.70;86.70;;;;;;7381238;19;20003;-74
2023/06/30 01:36:22;;;;;;;4.60;2.72;;;21.60;86.60;;;;;;7385467;19;20011;-76
2023/06/30 01:38:51;;;;;;;3.33;2.58;;;21.70;86.50;;;;;;7383641;19;20034;-75
2023/06/30 01:41:20;;;;;;;5.50;2.83;;;21.60;86.20;;;;;;7384069;19;20251;-76
2023/06/30 01:43:49;;;;;;;4.50;2.30;;;21.70;86.30;;;;;;7385360;19;20011;-76
2023/06/30 01:46:19;;;;;;;4.13;2.30;;;21.60;86.00;;;;;;7404582;19;20018;-75
2023/06/30 01:48:51;;;;;;;3.17;2.60;;;21.70;86.10;;;;;;7385363;19;20013;-76
2023/06/30 01:51:23;;;;;;;4.57;2.35;;;21.80;85.90;;;;;;7385260;19;20042;-75
2023/06/30 01:53:51;;;;;;;5.90;2.10;;;21.80;85.40;;;;;;7381646;19;20014;-75
2023/06/30 01:56:20;;;;;;;4.70;2.20;;;21.50;85.00;;;;;;7384197;19;20019;-75
2023/06/30 01:58:49;;;;;;;3.90;2.10;;;21.40;85.20;;;;;;7386888;19;20087;-76
2023/06/30 02:01:18;;;;;;;5.32;2.40;;;21.50;85.50;;;;;;7406573;19;20002;-76
2023/06/30 02:03:47;;;;;;;3.22;1.92;;;21.40;85.20;;;;;;7380820;19;20016;-76
2023/06/30 02:06:19;;;;;;;2.95;2.22;;;21.50;85.30;;;;;;7382178;19;20019;-76
2023/06/30 02:08:47;;;;;;;;;;;21.60;85.10;;;;;;7386599;19;20003;-76
2023/06/30 02:11:16;;;;;;;9.25;5.10;;;21.70;84.80;;;;;;7380942;19;19907;-75
2023/06/30 02:13:45;;;;;;;13.43;6.88;;;21.60;84.70;;;;;;7382612;19;20413;-75
2023/06/30 02:16:13;;;;;;;18.00;7.07;;;21.50;85.10;;;;;;7402654;19;20003;-76
2023/06/30 02:18:42;;;;;;;24.85;11.80;;;21.60;85.30;;;;;;7382726;19;20002;-76
2023/06/30 02:21:11;;;;;;;24.67;13.60;;;21.50;85.20;;;;;;7381890;19;20055;-76
2023/06/30 02:23:43;;;;;;;27.83;15.65;;;21.60;85.20;;;;;;7381796;19;20002;-75
2023/06/30 02:26:11;;;;;;;49.00;22.52;;;21.60;85.10;;;;;;7383574;19;19998;-75
2023/06/30 02:28:40;;;;;;;48.40;22.60;;;21.60;84.80;;;;;;7380796;19;20284;-75
2023/06/30 02:31:09;;;;;;;42.70;20.17;;;21.60;84.70;;;;;;7401856;19;20371;-75
2023/06/30 02:33:38;;;;;;;35.78;17.73;;;21.60;84.60;;;;;;7381462;19;20248;-76
2023/06/30 02:36:07;;;;;;;32.28;16.80;;;21.60;84.60;;;;;;7379537;19;20035;-76
2023/06/30 02:38:36;;;;;;;32.30;15.18;;;21.70;84.70;;;;;;7379578;19;20015;-76
2023/06/30 02:41:07;;;;;;;26.70;12.32;;;21.70;84.50;;;;;;7384854;19;20062;-76
2023/06/30 02:43:36;;;;;;;;;;;21.60;84.50;;;;;;7381291;19;20038;-76
2023/06/30 02:46:05;;;;;;;14.43;8.18;;;21.70;84.60;;;;;;7401636;19;20243;-76
2023/06/30 02:48:33;;;;;;;11.50;7.40;;;21.60;84.20;;;;;;7384442;19;20524;-75
2023/06/30 02:51:02;;;;;;;12.40;6.32;;;21.70;84.30;;;;;;7384361;19;20019;-75
2023/06/30 02:53:31;;;;;;;16.70;6.80;;;21.60;84.40;;;;;;7396086;19;20030;-76
2023/06/30 02:56:00;;;;;;;13.80;5.55;;;21.70;84.40;;;;;;7379327;19;20007;-75
2023/06/30 02:58:35;;;;;;;11.13;6.10;;;21.70;84.40;;;;;;7379784;19;20351;-75
2023/06/30 03:01:05;;;;;;;10.20;5.90;;;21.80;84.40;;;;;;7399234;19;20007;-76
2023/06/30 03:03:35;;;;;;;12.75;5.80;;;21.80;84.30;;;;;;7380459;19;20002;-76
2023/06/30 03:06:04;;;;;;;18.05;10.32;;;21.90;84.20;;;;;;7386513;19;20080;-75
2023/06/30 03:08:32;;;;;;;20.92;10.38;;;21.90;83.80;;;;;;7387085;19;20007;-75
2023/06/30 03:11:02;;;;;;;17.52;10.20;;;21.90;83.80;;;;;;7379843;19;20022;-76
2023/06/30 03:13:33;;;;;;;21.45;12.65;;;21.80;83.90;;;;;;7375996;19;20025;-75
2023/06/30 03:16:02;;;;;;;;;;;21.80;83.80;;;;;;7398809;19;20016;-76
2023/06/30 03:18:30;;;;;;;28.60;14.13;;;21.80;83.60;;;;;;7378022;19;19918;-75
2023/06/30 03:20:59;;;;;;;21.30;11.35;;;21.70;83.60;;;;;;7379307;19;20031;-76
2023/06/30 03:23:29;;;;;;;18.92;11.50;;;21.60;84.70;;;;;;7377023;19;20038;-76
2023/06/30 03:25:57;;;;;;;20.75;11.20;;;21.50;84.10;;;;;;7377412;19;19999;-76
2023/06/30 03:28:26;;;;;;;17.77;10.50;;;21.40;84.30;;;;;;7378701;19;20062;-75
2023/06/30 03:30:58;;;;;;;18.27;9.73;;;21.40;84.40;;;;;;7397584;19;20006;-74
2023/06/30 03:33:26;;;;;;;;;;;21.40;84.40;;;;;;7384960;19;20013;-76
2023/06/30 03:35:55;;;;;;;17.23;9.00;;;21.50;84.40;;;;;;7378818;19;20239;-75
2023/06/30 03:38:23;;;;;;;16.83;8.15;;;21.50;84.20;;;;;;7377262;19;20006;-76
2023/06/30 03:40:52;;;;;;;17.02;8.40;;;21.50;84.20;;;;;;7376460;19;20053;-75
2023/06/30 03:43:23;;;;;;;11.55;6.82;;;21.30;84.50;;;;;;7397540;19;20035;-75
2023/06/30 03:45:52;;;;;;;14.32;7.32;;;21.30;84.70;;;;;;7378428;19;20023;-75
2023/06/30 03:48:23;;;;;;;12.23;6.60;;;21.30;84.90;;;;;;7377364;19;20208;-75
2023/06/30 03:50:55;;;;;;;12.55;6.50;;;21.30;85.00;;;;;;7377481;19;20011;-76
2023/06/30 03:53:24;;;;;;;7.30;4.85;;;21.30;85.10;;;;;;7378505;19;20242;-76
2023/06/30 03:55:53;;;;;;;11.15;5.10;;;21.30;85.10;;;;;;7380360;19;20006;-76
2023/06/30 03:58:21;;;;;;;9.82;4.88;;;21.30;85.20;;;;;;7408424;19;20003;-75
2023/06/30 04:00:50;;;;;;;8.38;5.00;;;21.30;85.20;;;;;;7382691;19;20018;-75
2023/06/30 04:03:19;;;;;;;13.18;4.57;;;21.30;85.10;;;;;;7377111;19;20374;-76
2023/06/30 04:05:50;;;;;;;7.85;4.30;;;21.30;85.00;;;;;;7376760;19;20010;-76
2023/06/30 04:08:19;;;;;;;7.72;4.13;;;21.30;84.90;;;;;;7377488;19;20002;-77
2023/06/30 04:10:48;;;;;;;6.25;3.25;;;21.20;85.10;;;;;;7378142;19;20021;-76
2023/06/30 04:13:17;;;;;;;7.82;3.65;;;21.20;85.40;;;;;;7400423;19;20375;-75
2023/06/30 04:15:45;;;;;;;6.13;3.70;;;21.20;85.50;;;;;;7381113;19;20002;-74
2023/06/30 04:18:14;;;;;;;6.30;3.40;;;21.20;85.60;;;;;;7384461;19;20015;-75
2023/06/30 04:20:44;;;;;;;5.72;2.67;;;21.20;85.50;;;;;;7378038;19;20007;-74
2023/06/30 04:23:15;;;;;;;10.23;3.10;;;21.20;85.80;;;;;;7380539;19;20701;-75
2023/06/30 04:25:43;;;;;;;;;;;21.10;85.60;;;;;;7382283;19;20031;-76
2023/06/30 04:28:12;;;;;;;6.05;2.75;;;21.10;85.90;;;;;;7405021;19;19907;-75
2023/06/30 04:30:42;;;;;;;12.25;2.58;;;21.00;85.80;;;;;;7385623;19;20006;-76
2023/06/30 04:33:11;;;;;;;6.05;2.38;;;20.90;86.20;;;;;;7385112;19;20019;-76
2023/06/30 04:35:44;;;;;;;5.50;2.40;;;20.90;86.30;;;;;;7385615;19;20003;-76
2023/06/30 04:38:15;;;;;;;4.00;2.08;;;20.80;86.60;;;;;;7384064;19;20024;-76
2023/06/30 04:40:44;;;;;;;4.18;1.90;;;20.70;87.10;;;;;;7384082;19;20469;-76
2023/06/30 04:43:13;;;;;;;3.63;2.08;;;20.70;87.10;;;;;;7404740;19;20652;-75
2023/06/30 04:45:42;;;;;;;6.22;1.98;;;20.60;87.20;;;;;;7383643;19;20015;-75
2023/06/30 04:48:11;;;;;;;4.75;1.80;;;20.60;87.40;;;;;;7382501;19;20027;-75
2023/06/30 04:50:40;;;;;;;3.08;1.92;;;20.60;87.70;;;;;;7388876;19;20007;-74
2023/06/30 04:53:08;;;;;;;2.45;2.03;;;20.60;87.70;;;;;;7384343;19;20215;-77
2023/06/30 04:55:41;;;;;;;4.43;2.15;;;20.50;88.00;;;;;;7380860;19;20003;-76
2023/06/30 04:58:11;;;;;;;4.82;2.42;;;20.60;87.90;;;;;;7403241;19;20015;-75
2023/06/30 05:00:39;;;;;;;8.70;2.63;;;20.60;88.00;;;;;;7381919;19;20066;-76
2023/06/30 05:03:08;;;;;;;5.72;3.13;;;20.60;88.10;;;;;;7385408;19;20015;-77
2023/06/30 05:05:37;;;;;;;6.65;4.05;;;20.40;88.60;;;;;;7386136;19;20010;-75
2023/06/30 05:08:06;;;;;;;6.93;4.20;;;20.50;88.70;;;;;;7386699;19;20383;-76
2023/06/30 05:10:35;;;;;;;8.30;5.72;;;20.50;88.70;;;;;;7384551;19;20002;-75
2023/06/30 05:13:06;;;;;;;7.45;5.88;;;20.40;88.90;;;;;;7404885;19;20448;-75
2023/06/30 05:15:34;;;;;;;;;;;20.40;89.00;;;;;;7386970;19;20003;-75
2023/06/30 05:18:05;;;;;;;10.80;6.45;;;20.30;89.30;;;;;;7389500;19;20149;-76
2023/06/30 05:20:36;;;;;;;11.15;5.97;;;20.20;89.20;;;;;;7381631;19;20011;-76
2023/06/30 05:23:05;;;;;;;17.23;6.95;;;20.40;89.30;;;;;;7381124;19;20007;-75
2023/06/30 05:25:34;;;;;;;13.85;7.80;;;20.30;89.20;;;;;;7383350;19;20014;-75
2023/06/30 05:28:05;;;;;;;15.25;8.13;;;20.30;89.30;;;;;;7404423;19;20042;-76
2023/06/30 05:30:34;;;;;;;12.93;8.15;;;20.20;89.70;;;;;;7381861;19;20381;-75
2023/06/30 05:33:06;;;;;;;14.73;9.02;;;20.20;89.80;;;;;;7382567;19;20011;-76
2023/06/30 05:35:35;;;;;;;18.85;9.75;;;20.00;90.10;;;;;;7381902;19;20366;-75
2023/06/30 05:38:03;;;;;;;17.25;9.80;;;20.00;90.00;;;;;;7381022;19;20030;-75
2023/06/30 05:40:32;;;;;;;16.60;10.00;;;20.10;89.90;;;;;;7382667;19;20017;-76
2023/06/30 05:43:01;;;;;;;18.20;11.77;;;20.00;90.10;;;;;;7407178;19;20006;-75
2023/06/30 05:45:32;;;;;;;19.58;12.43;;;20.10;90.10;;;;;;7381056;19;20023;-76
2023/06/30 05:48:01;;;;;;;;;;;20.00;90.10;;;;;;7381272;19;20014;-76
2023/06/30 05:50:29;;;;;;;16.60;10.27;;;20.10;90.10;;;;;;7381476;19;19931;-75
2023/06/30 05:52:59;;;;;;;17.65;9.35;;;20.00;90.30;;;;;;7379285;19;20015;-75
2023/06/30 05:55:28;;;;;;;18.40;10.68;;;20.20;90.10;;;;;;7378650;19;20002;-75
2023/06/30 05:57:57;;;;;;;17.40;9.93;;;20.30;89.40;;;;;;7402395;19;20264;-76
2023/06/30 06:00:27;;;;;;;15.30;9.77;;;20.10;89.20;;;;;;7379782;19;20059;-76
2023/06/30 06:02:58;;;;;;;13.77;8.90;;;20.20;89.40;;;;;;7381999;19;20007;-76
2023/06/30 06:05:27;;;;;;;16.90;8.05;;;20.30;89.10;;;;;;7380695;19;20007;-76
2023/06/30 06:07:56;;;;;;;16.15;8.30;;;20.50;88.90;;;;;;7388304;19;20013;-76
2023/06/30 06:10:25;;;;;;;11.15;6.90;;;20.50;88.20;;;;;;7393057;19;20013;-75
2023/06/30 06:12:54;;;;;;;12.45;7.05;;;20.70;87.90;;;;;;7400268;19;20393;-76
2023/06/30 06:15:23;;;;;;;11.07;7.35;;;20.60;86.90;;;;;;7379162;19;20297;-75
2023/06/30 06:17:52;;;;;;;10.10;6.93;;;20.60;86.60;;;;;;7382231;19;20381;-76
2023/06/30 06:20:23;;;;;;;14.23;7.68;;;20.70;86.10;;;;;;7379147;19;20564;-76
2023/06/30 06:22:51;;;;;;;;;;;20.70;86.00;;;;;;7380251;19;20015;-76
2023/06/30 06:25:20;;;;;;;14.05;7.40;;;20.60;85.90;;;;;;7400003;19;20243;-76
2023/06/30 06:27:51;;;;;;;11.65;7.78;;;20.30;86.30;;;;;;7379617;19;20218;-76
2023/06/30 06:30:21;;;;;;;11.43;8.00;;;20.50;86.80;;;;;;7379586;19;20416;-76
2023/06/30 06:32:49;;;;;;;12.15;7.32;;;20.40;86.60;;;;;;7382947;19;20275;-75
2023/06/30 06:35:20;;;;;;;12.63;7.00;;;20.50;86.50;;;;;;7384221;19;20058;-77
2023/06/30 06:37:51;;;;;;;13.10;7.50;;;20.40;85.90;;;;;;7379298;19;20078;-76
2023/06/30 06:40:20;;;;;;;;;;;20.30;86.60;;;;;;7402977;19;20046;-75
2023/06/30 06:42:49;;;;;;;13.82;7.63;;;20.50;86.20;;;;;;7378975;19;20247;-76
2023/06/30 06:45:18;;;;;;;16.73;7.20;;;20.50;86.10;;;;;;7379112;19;20011;-75
2023/06/30 06:48:16;;;;;;;16.27;8.07;;;20.60;85.80;;;;;;7378501;19;20246;-75
2023/06/30 06:50:45;;;;;;;17.30;8.05;;;20.80;85.60;;;;;;7378063;19;20007;-76
2023/06/30 06:53:21;;;;;;;11.77;6.63;;;20.90;85.30;;;;;;7378854;19;20007;-75
2023/06/30 06:55:51;;;;;;;13.85;6.25;;;21.10;85.40;;;;;;7377707;19;20006;-76
2023/06/30 06:58:20;;;;;;;12.45;7.00;;;21.30;84.90;;;;;;7404353;19;20007;-75
2023/06/30 07:00:50;;;;;;;13.63;6.18;;;21.40;84.10;;;;;;7383909;19;20011;-75
2023/06/30 07:03:19;;;;;;;9.15;6.70;;;21.40;82.70;;;;;;7378681;19;20013;-72
2023/06/30 07:05:58;;;;;;;11.75;6.80;;;21.40;82.50;;;;;;7378519;19;20006;-74
2023/06/30 07:08:34;;;;;;;11.23;6.35;;;21.40;83.00;;;;;;7378161;19;20014;-74
2023/06/30 07:11:03;;;;;;;12.77;7.53;;;21.40;83.20;;;;;;7379473;19;20002;-73
2023/06/30 07:13:35;;;;;;;14.32;7.88;;;21.30;83.00;;;;;;7377524;19;20007;-74
2023/06/30 07:16:04;;;;;;;20.88;7.60;;;21.30;83.20;;;;;;7399828;19;20006;-73
2023/06/30 07:18:53;;;;;;;14.95;6.90;;;21.40;82.90;;;;;;7381417;19;20320;-76
2023/06/30 07:21:39;;;;;;;8.65;5.90;;;21.50;82.70;;;;;;7379457;19;20009;-77
2023/06/30 07:24:12;;;;;;;12.95;6.30;;;21.40;81.70;;;;;;7381283;19;20408;-75
2023/06/30 07:26:43;;;;;;;12.80;6.90;;;21.40;81.70;;;;;;7381248;19;20024;-76
2023/06/30 07:29:15;;;;;;;9.43;5.97;;;21.40;81.90;;;;;;7378587;19;20034;-74
2023/06/30 07:31:43;;;;;;;;;;;21.40;80.70;;;;;;7381105;19;20027;-72
2023/06/30 07:34:18;;;;;;;11.85;6.15;;;21.60;81.10;;;;;;7406152;19;19907;-74
2023/06/30 07:36:46;;;;;;;9.63;5.88;;;21.80;81.50;;;;;;7387872;19;20370;-71
2023/06/30 07:39:18;;;;;;;8.88;5.63;;;21.90;81.70;;;;;;7390560;19;20002;-73
2023/06/30 07:41:46;;;;;;;11.30;6.03;;;22.10;81.80;;;;;;7394918;19;20030;-73
2023/06/30 07:44:15;;;;;;;9.88;4.53;;;22.30;80.60;;;;;;7394267;19;20030;-71
2023/06/30 07:46:44;;;;;;;9.98;5.18;;;22.50;79.80;;;;;;7393938;19;20016;-72
2023/06/30 07:49:12;;;;;;;10.02;5.13;;;22.50;77.60;;;;;;7414372;19;20020;-72
2023/06/30 07:51:41;;;;;;;8.35;4.90;;;22.40;76.60;;;;;;7382966;19;20010;-73
2023/06/30 07:54:10;;;;;;;10.05;5.13;;;22.50;76.90;;;;;;7379225;19;20007;-74
2023/06/30 07:56:42;;;;;;;13.05;5.05;;;22.50;77.00;;;;;;7381022;19;20010;-73
2023/06/30 07:59:13;;;;;;;12.55;5.45;;;22.40;78.00;;;;;;7380756;19;20074;-74
2023/06/30 08:01:41;;;;;;;10.70;5.10;;;22.40;77.90;;;;;;7380378;19;20033;-73
2023/06/30 08:08:32;;;;;;;15.20;5.32;;;22.50;77.40;;;;;;7257431;19;2004406;-77
2023/06/30 08:11:01;;;;;;;14.35;4.43;;;22.50;77.00;;;;;;7380738;19;20018;-73
2023/06/30 08:13:32;;;;;;;10.65;4.55;;;22.70;75.60;;;;;;7382081;19;20062;-73
2023/06/30 08:16:01;;;;;;;8.85;4.38;;;22.70;73.90;;;;;;7405077;19;20009;-72
2023/06/30 08:18:32;;;;;;;7.15;4.50;;;22.70;74.20;;;;;;7390464;19;20019;-73
2023/06/30 08:21:05;;;;;;;8.70;4.25;;;22.70;75.10;;;;;;7383165;19;20007;-73
2023/06/30 08:23:47;;;;;;;11.05;4.22;;;22.70;74.80;;;;;;7383554;19;20031;-73
2023/06/30 08:26:17;;;;;;;7.45;4.07;;;22.80;73.00;;;;;;7384191;19;20109;-74
2023/06/30 08:28:50;;;;;;;9.43;4.45;;;22.70;72.90;;;;;;7382689;19;20160;-73
2023/06/30 08:31:18;;;;;;;8.38;4.20;;;22.70;74.20;;;;;;7405861;19;20011;-73
2023/06/30 08:34:17;;;;;;;11.80;4.28;;;22.60;75.20;;;;;;7383194;19;20242;-76
2023/06/30 08:36:46;;;;;;;5.30;3.28;;;22.70;75.00;;;;;;7382630;19;20335;-73
2023/06/30 08:39:14;;;;;;;7.05;2.88;;;22.80;73.00;;;;;;7383244;19;20066;-73
2023/06/30 08:41:45;;;;;;;12.27;3.10;;;22.90;71.00;;;;;;7386462;19;20003;-72
2023/06/30 08:44:18;;;;;;;7.95;2.75;;;23.00;70.30;;;;;;7386490;19;20066;-73
2023/06/30 08:46:49;;;;;;;6.30;2.88;;;23.00;68.60;;;;;;7381867;19;20221;-73
2023/06/30 08:49:31;;;;;;;4.75;2.42;;;23.10;67.90;;;;;;7402910;19;20026;-75
2023/06/30 08:52:03;;;;;;;6.10;3.08;;;23.10;67.50;;;;;;7383197;19;20025;-72
2023/06/30 08:54:32;;;;;;;9.50;2.67;;;23.20;66.30;;;;;;7381838;19;20308;-74
2023/06/30 08:57:04;;;;;;;4.10;2.40;;;23.10;66.80;;;;;;7381600;19;20006;-72
2023/06/30 08:59:35;;;;;;;4.70;2.30;;;23.10;67.10;;;;;;7381877;19;20003;-72
2023/06/30 09:02:03;;;;;;;;;;;23.00;67.00;;;;;;7383050;19;20015;-73
2023/06/30 09:04:35;;;;;;;7.72;2.28;;;23.10;66.70;;;;;;7382615;19;19923;-73
2023/06/30 09:07:08;;;;;;;10.43;2.65;;;23.10;66.20;;;;;;7404261;19;20397;-73
2023/06/30 09:09:45;;;;;;;4.38;2.67;;;23.00;65.40;;;;;;7386829;19;20003;-72
2023/06/30 09:12:14;;;;;;;17.70;2.38;;;23.10;65.70;;;;;;7381309;19;20002;-72
2023/06/30 09:14:47;;;;;;;8.27;2.63;;;23.00;65.70;;;;;;7383342;19;20268;-72
2023/06/30 09:17:16;;;;;;;5.47;2.55;;;23.10;66.50;;;;;;7382231;19;20010;-72
2023/06/30 09:19:48;;;;;;;6.97;2.42;;;23.00;66.40;;;;;;7381035;19;20015;-72
2023/06/30 09:22:19;;;;;;;4.32;2.10;;;22.80;66.20;;;;;;7402552;19;20010;-72
2023/06/30 09:24:48;;;;;;;3.28;2.13;;;23.00;66.70;;;;;;7381242;19;20235;-73
2023/06/30 09:27:21;;;;;;;5.07;1.65;;;23.20;65.50;;;;;;7381240;19;20012;-71
2023/06/30 09:29:59;;;;;;;9.40;2.30;;;23.20;63.40;;;;;;7381956;19;20016;-73
2023/06/30 09:32:33;;;;;;;2.63;1.80;;;23.40;63.00;;;;;;7382112;19;20011;-72
2023/06/30 09:35:09;;;;;;;3.17;2.03;;;23.40;62.20;;;;;;7381086;19;20250;-71
2023/06/30 09:37:43;;;;;;;6.40;2.35;;;23.50;62.50;;;;;;7380352;19;20002;-72
2023/06/30 09:40:17;;;;;;;3.78;1.83;;;23.60;62.30;;;;;;7401856;19;20058;-72
2023/06/30 09:42:48;;;;;;;3.35;1.77;;;23.70;61.20;;;;;;7380387;19;20026;-73
2023/06/30 09:45:22;;;;;;;;;;;23.80;62.00;;;;;;7382355;19;20010;-69
2023/06/30 09:47:54;;;;;;;4.80;2.05;;;23.80;62.70;;;;;;7379992;19;19928;-71
2023/06/30 09:50:27;;;;;;;7.57;2.35;;;23.90;63.10;;;;;;7380154;19;20007;-72
2023/06/30 09:52:56;;;;;;;4.80;1.98;;;24.00;62.70;;;;;;7381591;19;20003;-71
2023/06/30 09:55:24;;;;;;;6.95;1.73;;;23.90;61.60;;;;;;7402048;19;20288;-71
2023/06/30 09:57:56;;;;;;;8.40;2.13;;;23.90;60.60;;;;;;7380347;19;20006;-71
2023/06/30 10:00:28;;;;;;;;;;;23.90;61.40;;;;;;7386130;19;20011;-72
2023/06/30 10:03:08;;;;;;;5.72;1.90;;;23.90;61.90;;;;;;7379287;19;19911;-72
2023/06/30 10:05:38;;;;;;;4.72;2.08;;;24.00;62.40;;;;;;7379676;19;20035;-69
2023/06/30 10:08:07;;;;;;;5.30;1.95;;;24.10;61.80;;;;;;7378426;19;20028;-69
2023/06/30 10:10:36;;;;;;;6.53;1.90;;;24.20;61.10;;;;;;7381645;19;20394;-71
2023/06/30 10:13:05;;;;;;;5.18;2.08;;;24.30;61.60;;;;;;7400633;19;20119;-71
2023/06/30 10:15:38;;;;;;;6.30;1.98;;;24.30;61.60;;;;;;7378380;19;20092;-72
2023/06/30 10:18:11;;;;;;;5.25;2.13;;;24.20;61.80;;;;;;7379979;19;20369;-73
2023/06/30 10:20:44;;;;;;;6.10;2.13;;;24.30;61.30;;;;;;7383543;19;20250;-74
2023/06/30 10:23:13;;;;;;;4.55;1.58;;;24.40;61.40;;;;;;7376307;19;20011;-72
2023/06/30 10:25:42;;;;;;;2.42;1.75;;;24.50;61.40;;;;;;7382636;19;20003;-71
2023/06/30 10:28:11;;;;;;;6.43;2.10;;;24.60;60.50;;;;;;7403122;19;20018;-73
2023/06/30 10:30:43;;;;;;;8.10;2.15;;;24.60;61.00;;;;;;7379955;19;20007;-73
2023/06/30 10:33:12;;;;;;;4.20;1.73;;;24.70;60.70;;;;;;7379830;19;20003;-72
2023/06/30 10:35:41;;;;;;;12.18;1.90;;;24.80;59.70;;;;;;7378032;19;20010;-71
2023/06/30 10:38:11;;;;;;;4.78;1.92;;;24.90;59.50;;;;;;7379105;19;20063;-72
2023/06/30 10:40:40;;;;;;;3.17;1.70;;;24.90;59.50;;;;;;7378672;19;20014;-70
2023/06/30 10:43:10;;;;;;;2.45;1.50;;;24.90;57.80;;;;;;7398856;19;20023;-71
2023/06/30 10:46:10;;;;;;;4.15;1.75;;;25.00;56.90;;;;;;7377996;19;20034;-71
2023/06/30 10:48:38;;;;;;;4.95;1.85;;;25.10;58.00;;;;;;7378092;19;20006;-70
2023/06/30 10:51:07;;;;;;;7.72;1.83;;;25.10;59.00;;;;;;7377130;19;20370;-72
2023/06/30 10:53:38;;;;;;;3.30;1.42;;;25.30;60.30;;;;;;7378639;19;20016;-73
2023/06/30 10:56:09;;;;;;;2.47;1.67;;;25.10;59.70;;;;;;7378214;19;20010;-73
2023/06/30 10:58:47;;;;;;;5.45;1.70;;;25.00;59.10;;;;;;7377339;19;20339;-73
2023/06/30 11:01:19;;;;;;;3.47;1.52;;;24.90;59.40;;;;;;7401293;19;20027;-72
2023/06/30 11:04:02;;;;;;;;;;;24.90;59.50;;;;;;7378446;19;20070;-73
2023/06/30 11:06:31;;;;;;;4.53;1.58;;;24.90;60.00;;;;;;7380546;19;19935;-72
2023/06/30 11:09:04;;;;;;;1.92;1.65;;;24.80;59.10;;;;;;7377545;19;20389;-73
2023/06/30 11:11:48;;;;;;;5.03;1.75;;;24.70;58.10;;;;;;7377030;19;20376;-73
2023/06/30 11:14:31;;;;;;;2.67;1.65;;;24.80;58.20;;;;;;7378500;19;20006;-72
2023/06/30 11:17:08;;;;;;;3.90;1.70;;;25.00;58.10;;;;;;7379756;19;20019;-73
2023/06/30 11:19:38;;;;;;;7.82;1.50;;;25.20;57.00;;;;;;7380727;19;20006;-73
2023/06/30 11:22:26;;;;;;;4.65;1.77;;;25.30;56.50;;;;;;7397999;19;20025;-73
2023/06/30 11:24:55;;;;;;;5.05;1.65;;;25.50;57.30;;;;;;7377787;19;20035;-73
2023/06/30 11:27:24;;;;;;;2.83;1.48;;;25.40;56.30;;;;;;7377842;19;20002;-73
2023/06/30 11:29:55;;;;;;;9.80;1.73;;;25.20;55.30;;;;;;7377565;19;20023;-73
2023/06/30 11:32:30;;;;;;;2.50;1.23;;;25.30;55.40;;;;;;7377400;19;20114;-73
2023/06/30 11:35:01;;;;;;;3.33;1.40;;;25.30;55.20;;;;;;7378142;19;20307;-73
2023/06/30 11:37:35;;;;;;;3.28;1.23;;;25.30;54.80;;;;;;7385375;19;20006;-74
2023/06/30 11:40:04;;;;;;;4.15;1.60;;;25.50;55.30;;;;;;7403784;19;20006;-72
2023/06/30 11:42:35;;;;;;;3.15;1.60;;;25.60;55.70;;;;;;7383395;19;20007;-73
2023/06/30 11:45:05;;;;;;;6.43;2.08;;;25.70;56.50;;;;;;7387032;19;20003;-72
2023/06/30 11:47:36;;;;;;;4.88;1.52;;;25.50;57.50;;;;;;7384338;19;20570;-73
2023/06/30 11:50:08;;;;;;;3.25;1.70;;;25.30;57.70;;;;;;7385286;19;20042;-73
2023/06/30 11:52:37;;;;;;;2.53;1.60;;;25.20;57.80;;;;;;7382370;19;20358;-73
2023/06/30 11:55:10;;;;;;;8.85;1.55;;;25.10;57.60;;;;;;7406733;19;20016;-73
2023/06/30 11:57:41;;;;;;;4.82;1.52;;;25.10;57.90;;;;;;7388666;19;20379;-73
2023/06/30 12:00:12;;;;;;;3.53;1.70;;;25.30;58.30;;;;;;7389121;19;20013;-73
2023/06/30 12:02:45;;;;;;;7.00;1.50;;;25.30;57.60;;;;;;7387899;19;20239;-73
2023/06/30 12:05:21;;;;;;;4.53;1.67;;;25.50;58.00;;;;;;7385373;19;20017;-73
2023/06/30 12:07:51;;;;;;;3.67;1.60;;;25.50;57.10;;;;;;7383224;19;20007;-73
2023/06/30 12:10:21;;;;;;;3.20;1.70;;;25.50;56.20;;;;;;7411300;19;20018;-73
2023/06/30 12:12:56;;;;;;;8.50;1.50;;;25.60;56.30;;;;;;7386319;19;19998;-74
2023/06/30 12:15:26;;;;;;;3.45;1.30;;;25.70;56.60;;;;;;7386627;19;20023;-72
2023/06/30 12:17:57;;;;;;;5.15;1.60;;;25.70;57.00;;;;;;7386858;19;20007;-72
2023/06/30 12:20:35;;;;;;;5.05;1.42;;;25.80;56.40;;;;;;7383709;19;20003;-72
2023/06/30 12:23:04;;;;;;;1.50;1.08;;;25.90;55.30;;;;;;7382033;19;20234;-72
2023/06/30 12:25:33;;;;;;;7.00;1.52;;;25.80;55.30;;;;;;7383735;19;20007;-73
2023/06/30 12:28:04;;;;;;;3.58;1.40;;;25.90;54.30;;;;;;7405936;19;20018;-73
2023/06/30 12:30:32;;;;;;;9.30;1.90;;;25.80;54.80;;;;;;7383107;19;20010;-73
2023/06/30 12:33:05;;;;;;;3.47;1.30;;;25.60;55.60;;;;;;7382913;19;20010;-73
2023/06/30 12:35:38;;;;;;;9.32;1.45;;;25.60;56.20;;;;;;7387626;19;20010;-73
2023/06/30 12:38:09;;;;;;;3.67;1.45;;;25.50;56.10;;;;;;7383461;19;20007;-72
2023/06/30 12:40:38;;;;;;;4.23;1.67;;;25.20;55.80;;;;;;7382612;19;20007;-72
2023/06/30 12:43:07;;;;;;;10.48;1.80;;;25.40;56.10;;;;;;7401660;19;20358;-72
2023/06/30 12:45:36;;;;;;;8.57;2.03;;;25.40;55.70;;;;;;7381930;19;20027;-73
2023/06/30 12:48:07;;;;;;;3.88;1.83;;;25.40;56.00;;;;;;7381099;19;20010;-73
2023/06/30 12:50:36;;;;;;;3.65;1.42;;;25.20;55.90;;;;;;7381370;19;20079;-73
2023/06/30 12:53:07;;;;;;;6.13;1.30;;;25.10;55.60;;;;;;7383081;19;20009;-73
2023/06/30 12:55:36;;;;;;;3.40;1.35;;;25.20;56.00;;;;;;7384368;19;20031;-73
2023/06/30 12:58:05;;;;;;;3.72;1.42;;;25.30;56.50;;;;;;7407731;19;20002;-73
2023/06/30 13:00:33;;;;;;;5.45;1.30;;;25.40;55.90;;;;;;7383523;19;20007;-73
2023/06/30 13:03:02;;;;;;;2.15;1.40;;;25.50;56.00;;;;;;7384134;19;20023;-73
2023/06/30 13:05:33;;;;;;;5.95;1.20;;;25.50;55.90;;;;;;7387775;19;20016;-74
2023/06/30 13:08:02;;;;;;;4.80;1.30;;;25.50;55.20;;;;;;7387855;19;20002;-73
2023/06/30 13:10:31;;;;;;;3.53;1.45;;;25.50;54.90;;;;;;7384877;19;20014;-73